Time;durP1;ratioP1;P1;durP2;ratioP2;P2;SDS_P1;SDS_P2;PMS_P1;PMS_P2;Temp;Humidity;BMP_temperature;BMP_pressure;BME280_temperature;BME280_humidity;BME280_pressure;Samples;Min_cycle;Max_cycle;Signal;HPM_P1;HPM_P2
2021/12/28 08:31:35;;;;;;;5.40;2.00;;;11.50;99.90;;;;;;6281887;22;20213;-95
2021/12/28 08:34:02;;;;;;;3.40;2.37;;;11.70;99.90;;;;;;6253577;23;20616;-96
2021/12/28 08:36:28;;;;;;;3.60;1.87;;;11.80;99.90;;;;;;6252534;22;20155;-92
2021/12/28 08:38:55;;;;;;;5.40;2.80;;;11.80;99.90;;;;;;6254899;23;20174;-96
2021/12/28 08:41:21;;;;;;;3.07;2.60;;;11.80;99.90;;;;;;6253098;23;20585;-96
2021/12/28 08:43:47;;;;;;;4.43;2.80;;;11.70;99.90;;;;;;6253791;22;20231;-96
2021/12/28 08:46:14;;;;;;;3.70;2.67;;;11.60;99.90;;;;;;6226262;23;20163;-96
2021/12/28 08:48:39;;;;;;;5.43;3.10;;;11.50;99.90;;;;;;6252469;22;20151;-96
2021/12/28 08:51:05;;;;;;;4.30;2.90;;;11.40;99.90;;;;;;6249865;23;20178;-92
2021/12/28 08:53:31;;;;;;;4.20;3.10;;;11.50;99.90;;;;;;6251100;22;20135;-96
2021/12/28 08:55:56;;;;;;;4.50;3.30;;;11.50;99.90;;;;;;6249273;23;20148;-96
2021/12/28 08:58:22;;;;;;;5.30;3.23;;;11.50;99.90;;;;;;6253182;23;20150;-96
2021/12/28 09:00:48;;;;;;;5.20;2.77;;;11.60;99.90;;;;;;6256206;22;20521;-93
2021/12/28 09:03:13;;;;;;;3.80;2.20;;;11.60;99.90;;;;;;6251135;23;20238;-96
2021/12/28 09:05:39;;;;;;;2.50;2.30;;;11.70;99.90;;;;;;6254114;22;20171;-96
2021/12/28 09:08:16;;;;;;;3.80;2.13;;;11.70;99.90;;;;;;6253128;23;20164;-96
2021/12/28 09:10:44;;;;;;;4.40;2.20;;;11.70;99.90;;;;;;6253352;22;20198;-96
2021/12/28 09:13:11;;;;;;;3.80;2.30;;;11.70;99.90;;;;;;6251033;23;20484;-96
2021/12/28 09:15:37;;;;;;;4.43;2.33;;;11.70;99.90;;;;;;6252643;22;20175;-96
2021/12/28 09:18:03;;;;;;;2.53;2.07;;;11.70;99.90;;;;;;6251214;23;20143;-96
2021/12/28 09:20:29;;;;;;;5.07;2.40;;;11.70;99.90;;;;;;6249938;22;20151;-96
2021/12/28 09:22:56;;;;;;;3.97;2.57;;;11.70;99.90;;;;;;6249191;23;20450;-95
2021/12/28 09:25:23;;;;;;;3.27;2.77;;;11.70;99.90;;;;;;6249138;23;20151;-96
2021/12/28 09:27:50;;;;;;;6.20;2.20;;;11.80;99.90;;;;;;6238940;23;20171;-94
2021/12/28 09:30:16;;;;;;;4.40;2.30;;;12.00;99.90;;;;;;6219266;23;20170;-96
2021/12/28 09:32:42;;;;;;;3.40;1.90;;;12.00;99.90;;;;;;6221522;23;20566;-96
2021/12/28 09:35:10;;;;;;;5.63;2.40;;;12.00;99.90;;;;;;6219226;23;20152;-95
2021/12/28 09:37:36;;;;;;;4.90;2.27;;;11.90;99.90;;;;;;6219954;23;20156;-96
2021/12/28 09:40:05;;;;;;;4.17;2.20;;;12.00;99.90;;;;;;6220710;23;20144;-96
2021/12/28 09:42:30;;;;;;;3.03;1.70;;;12.00;99.90;;;;;;6219423;23;20154;-96
2021/12/28 09:44:56;;;;;;;4.97;2.47;;;11.90;99.90;;;;;;6219813;23;20178;-96
2021/12/28 09:47:23;;;;;;;4.10;2.40;;;12.00;99.90;;;;;;6219892;23;20177;-96
2021/12/28 09:49:49;;;;;;;5.07;2.30;;;12.10;99.90;;;;;;6222751;23;20147;-96
2021/12/28 09:52:16;;;;;;;5.00;2.37;;;12.10;99.90;;;;;;6218781;23;20190;-96
2021/12/28 09:54:44;;;;;;;4.97;1.90;;;11.90;99.90;;;;;;6225620;23;20152;-95
2021/12/28 09:57:17;;;;;;;3.53;2.00;;;11.90;99.90;;;;;;6224474;23;20144;-96
2021/12/28 09:59:43;;;;;;;5.13;2.77;;;11.80;99.90;;;;;;6222803;22;20203;-96
2021/12/28 10:02:10;;;;;;;3.67;1.83;;;11.90;99.90;;;;;;6219170;23;20174;-96
2021/12/28 10:04:59;;;;;;;5.17;1.60;;;11.80;99.90;;;;;;6220438;23;20171;-93
2021/12/28 10:07:28;;;;;;;4.80;2.17;;;11.80;99.90;;;;;;6218794;23;20210;-95
2021/12/28 10:09:54;;;;;;;3.77;1.27;;;11.70;99.90;;;;;;6221856;23;20219;-95
2021/12/28 10:12:38;;;;;;;3.23;1.03;;;11.60;99.90;;;;;;6220878;23;20532;-96
2021/12/28 10:15:09;;;;;;;2.90;0.90;;;11.70;99.90;;;;;;6227880;23;20143;-96
2021/12/28 10:17:36;;;;;;;1.47;0.80;;;11.70;99.90;;;;;;6227852;23;20177;-96
2021/12/28 10:20:43;;;;;;;0.90;0.70;;;11.70;99.90;;;;;;6218753;23;20136;-96
2021/12/28 10:23:16;;;;;;;1.63;0.80;;;11.80;99.90;;;;;;6231141;23;20155;-96
2021/12/28 10:26:05;;;;;;;1.43;0.53;;;11.80;99.90;;;;;;6223011;23;20186;-96
2021/12/28 10:28:33;;;;;;;1.30;0.80;;;11.70;99.90;;;;;;6224626;23;20172;-94
2021/12/28 10:31:21;;;;;;;6.43;1.10;;;11.50;99.90;;;;;;6226718;23;20195;-94
2021/12/28 10:33:54;;;;;;;9.07;1.67;;;11.40;99.90;;;;;;6262834;23;20224;-96
2021/12/28 10:36:33;;;;;;;10.87;2.20;;;11.20;99.90;;;;;;6238569;23;20148;-94
2021/12/28 10:39:08;;;;;;;13.50;2.50;;;10.90;99.90;;;;;;6239506;22;20148;-93
2021/12/28 10:41:42;;;;;;;14.07;2.40;;;11.00;99.90;;;;;;6268212;22;20171;-96
2021/12/28 10:44:08;;;;;;;24.53;3.07;;;11.20;99.90;;;;;;6238941;23;20226;-95
2021/12/28 10:46:34;;;;;;;21.10;3.30;;;11.30;99.90;;;;;;6240204;23;20166;-95
2021/12/28 10:49:01;;;;;;;25.30;4.03;;;11.30;99.90;;;;;;6235247;23;20258;-96
2021/12/28 17:49:52;;;;;;;38.00;8.10;;;9.80;99.90;;;;;;6332097;22;20237;-96
2021/12/28 17:52:17;;;;;;;34.97;8.60;;;9.90;99.90;;;;;;6326127;22;20181;-96
2021/12/28 17:54:43;;;;;;;29.93;6.67;;;9.90;99.90;;;;;;6320161;22;20150;-96
2021/12/28 17:57:08;;;;;;;29.47;6.40;;;9.90;99.90;;;;;;6314695;22;20197;-95
2021/12/28 17:59:34;;;;;;;21.17;6.70;;;9.90;99.90;;;;;;6312720;22;20201;-95
2021/12/28 18:02:00;;;;;;;29.80;7.33;;;9.90;99.90;;;;;;6311607;22;20577;-95
2021/12/28 18:04:25;;;;;;;30.90;6.47;;;9.90;99.90;;;;;;6312184;22;20215;-93
2021/12/28 18:06:51;;;;;;;23.43;8.17;;;9.90;99.90;;;;;;6313529;22;20546;-93
2021/12/28 18:09:17;;;;;;;32.47;7.33;;;9.80;99.90;;;;;;6313915;22;20160;-93
2021/12/28 18:11:43;;;;;;;22.20;7.33;;;9.80;99.90;;;;;;6313338;22;20476;-93
2021/12/28 18:14:09;;;;;;;27.10;7.00;;;9.80;99.90;;;;;;6313079;22;20248;-92
2021/12/28 18:16:35;;;;;;;17.57;6.83;;;9.80;99.90;;;;;;6314025;22;20633;-94
2021/12/28 18:19:02;;;;;;;25.13;7.97;;;9.90;99.90;;;;;;6313270;22;20510;-93
2021/12/28 18:21:27;;;;;;;24.63;7.50;;;9.80;99.90;;;;;;6313759;22;20162;-92
2021/12/28 18:23:53;;;;;;;24.37;7.77;;;9.80;99.90;;;;;;6313227;22;20155;-93
2021/12/28 18:26:19;;;;;;;29.97;8.40;;;9.70;99.90;;;;;;6312975;22;20633;-93
2021/12/28 18:28:44;;;;;;;25.00;8.10;;;9.80;99.90;;;;;;6313595;22;20141;-90
2021/12/28 18:31:10;;;;;;;26.40;8.90;;;9.90;99.90;;;;;;6313346;22;20172;-93
2021/12/28 18:33:38;;;;;;;20.00;7.57;;;9.90;99.90;;;;;;6313344;22;20145;-93
2021/12/28 18:36:05;;;;;;;20.37;7.57;;;9.90;99.90;;;;;;6313271;22;20194;-91
2021/12/28 18:38:33;;;;;;;28.10;8.47;;;9.90;99.90;;;;;;6313331;22;20158;-93
2021/12/28 18:41:04;;;;;;;20.50;10.13;;;9.90;99.90;;;;;;6340078;22;20570;-93
2021/12/28 18:43:30;;;;;;;23.67;8.37;;;9.80;99.90;;;;;;6313135;22;20157;-92
2021/12/28 18:45:56;;;;;;;19.37;8.50;;;9.90;99.90;;;;;;6340452;22;20173;-90
2021/12/28 18:48:22;;;;;;;26.53;8.20;;;9.90;99.90;;;;;;6313171;22;20640;-94
2021/12/28 18:50:52;;;;;;;19.33;8.33;;;9.90;99.90;;;;;;6340547;22;20177;-93
2021/12/28 18:53:18;;;;;;;24.50;9.80;;;9.90;99.90;;;;;;6341370;22;20385;-94
2021/12/28 18:55:47;;;;;;;25.60;9.13;;;9.90;99.90;;;;;;6335361;22;20143;-94
2021/12/28 18:58:18;;;;;;;36.17;12.13;;;9.90;99.90;;;;;;6312834;22;20163;-93
2021/12/28 19:00:43;;;;;;;24.23;10.47;;;9.90;99.90;;;;;;6312611;22;20161;-92
2021/12/28 19:03:09;;;;;;;27.40;10.07;;;9.90;99.90;;;;;;6339220;22;20165;-94
2021/12/28 19:05:35;;;;;;;29.37;10.57;;;9.90;99.90;;;;;;6340353;22;20151;-92
2021/12/28 19:08:03;;;;;;;26.07;11.50;;;9.90;99.90;;;;;;6312691;22;20246;-92
2021/12/28 19:10:28;;;;;;;26.43;10.50;;;9.90;99.90;;;;;;6338968;22;20166;-91
2021/12/28 19:12:55;;;;;;;27.27;11.83;;;10.00;99.90;;;;;;6339803;22;20145;-93
2021/12/28 19:15:23;;;;;;;34.27;11.67;;;10.00;99.90;;;;;;6311036;22;20206;-92
2021/12/28 19:17:50;;;;;;;27.87;11.93;;;10.00;99.90;;;;;;6312423;22;20665;-90
2021/12/28 19:20:16;;;;;;;25.67;10.53;;;10.00;99.90;;;;;;6312159;22;20224;-91
2021/12/28 19:22:42;;;;;;;34.10;12.77;;;10.00;99.90;;;;;;6312205;22;20145;-91
2021/12/28 19:25:09;;;;;;;38.80;12.70;;;10.10;99.90;;;;;;6311349;22;20158;-93
2021/12/28 19:27:36;;;;;;;29.07;13.17;;;10.00;99.90;;;;;;6312580;22;20192;-90
2021/12/28 19:30:04;;;;;;;31.87;13.37;;;10.00;99.90;;;;;;6314167;22;20183;-94
2021/12/28 19:32:29;;;;;;;34.90;12.80;;;10.00;99.90;;;;;;6313632;22;20191;-94
2021/12/28 19:34:55;;;;;;;27.37;13.03;;;10.00;99.90;;;;;;6314370;22;20200;-94
2021/12/28 19:37:20;;;;;;;31.20;13.27;;;9.90;99.90;;;;;;6314659;22;20153;-94
2021/12/28 19:39:46;;;;;;;42.47;14.27;;;9.90;99.90;;;;;;6314085;22;20155;-93
2021/12/28 19:42:12;;;;;;;32.87;14.43;;;9.90;99.90;;;;;;6311730;22;20153;-88
2021/12/28 19:44:37;;;;;;;33.83;13.60;;;9.90;99.90;;;;;;6312616;22;20148;-91
2021/12/28 19:47:03;;;;;;;35.63;13.53;;;10.00;99.90;;;;;;6312156;22;20243;-91
2021/12/28 19:49:35;;;;;;;32.87;13.80;;;10.00;99.90;;;;;;6311970;22;20175;-91
2021/12/28 19:52:01;;;;;;;25.13;13.47;;;10.10;99.90;;;;;;6311857;22;20680;-92
2021/12/28 19:54:27;;;;;;;26.47;12.57;;;10.20;99.90;;;;;;6309644;22;20152;-91
2021/12/28 19:56:53;;;;;;;30.27;12.67;;;10.20;99.90;;;;;;6311862;22;20178;-93
2021/12/28 19:59:20;;;;;;;23.67;12.53;;;10.20;99.90;;;;;;6313876;22;20150;-92
2021/12/28 20:01:46;;;;;;;26.60;12.30;;;10.20;99.90;;;;;;6312318;22;20226;-92
2021/12/28 20:04:12;;;;;;;24.13;12.40;;;10.20;99.90;;;;;;6312003;22;20591;-91
2021/12/28 20:06:38;;;;;;;31.33;15.53;;;10.20;99.90;;;;;;6339436;22;20152;-92
2021/12/28 20:09:06;;;;;;;36.13;15.73;;;10.20;99.90;;;;;;6311802;22;20153;-92
2021/12/28 20:11:32;;;;;;;37.20;19.60;;;10.10;99.90;;;;;;6310907;22;20186;-90
2021/12/28 20:13:59;;;;;;;43.90;29.40;;;10.20;99.90;;;;;;6312213;22;20187;-92
2021/12/28 20:16:25;;;;;;;22.77;12.27;;;10.20;99.90;;;;;;6312152;22;20149;-91
2021/12/28 20:18:51;;;;;;;29.67;13.83;;;10.20;99.90;;;;;;6310658;22;20233;-89
2021/12/28 20:21:21;;;;;;;25.27;12.23;;;10.10;99.90;;;;;;6306704;22;20144;-91
2021/12/28 20:23:47;;;;;;;26.50;13.10;;;10.10;99.90;;;;;;6314442;22;20623;-91
2021/12/28 20:26:14;;;;;;;22.40;12.30;;;10.20;99.90;;;;;;6314278;22;20164;-89
2021/12/28 20:28:40;;;;;;;28.83;13.03;;;10.10;99.90;;;;;;6313921;22;20248;-92
2021/12/28 20:31:07;;;;;;;27.30;13.20;;;10.10;99.90;;;;;;6314438;22;20174;-89
2021/12/28 20:33:34;;;;;;;28.50;14.33;;;10.10;99.90;;;;;;6314006;22;20544;-93
2021/12/28 20:36:00;;;;;;;21.03;12.43;;;10.10;99.90;;;;;;6314404;22;20170;-92
2021/12/28 20:38:25;;;;;;;23.77;12.63;;;10.10;99.90;;;;;;6314703;22;20218;-94
2021/12/28 20:40:54;;;;;;;28.77;12.53;;;10.20;99.90;;;;;;6315102;22;20155;-93
2021/12/28 20:43:21;;;;;;;23.53;12.63;;;10.30;99.90;;;;;;6314169;22;20467;-95
2021/12/28 20:45:49;;;;;;;28.27;13.27;;;10.30;99.90;;;;;;6314323;22;20145;-87
2021/12/28 20:48:16;;;;;;;25.57;13.10;;;10.30;99.90;;;;;;6313880;22;20157;-92
2021/12/28 20:50:42;;;;;;;25.07;13.17;;;10.20;99.90;;;;;;6313435;22;20157;-92
2021/12/28 20:53:08;;;;;;;24.70;12.37;;;10.20;99.90;;;;;;6313887;22;20260;-92
2021/12/28 20:55:34;;;;;;;19.57;12.33;;;10.20;99.90;;;;;;6314380;22;20153;-90
2021/12/28 20:58:02;;;;;;;25.60;12.77;;;10.20;99.90;;;;;;6315054;22;20153;-94
2021/12/28 21:00:28;;;;;;;18.90;11.53;;;10.10;99.90;;;;;;6315274;22;20269;-94
2021/12/28 21:02:58;;;;;;;22.33;12.23;;;10.10;99.90;;;;;;6316063;22;20147;-92
2021/12/28 21:05:26;;;;;;;28.03;13.50;;;10.00;99.90;;;;;;6312759;22;20164;-94
2021/12/28 21:07:52;;;;;;;22.77;12.50;;;10.10;99.90;;;;;;6313701;22;20141;-93
2021/12/28 21:10:19;;;;;;;24.67;12.70;;;10.10;99.90;;;;;;6314451;22;20474;-93
2021/12/28 21:12:46;;;;;;;24.00;11.60;;;10.10;99.90;;;;;;6316873;22;20272;-96
2021/12/28 21:15:13;;;;;;;24.13;12.63;;;10.10;99.90;;;;;;6317957;22;20149;-94
2021/12/28 21:17:39;;;;;;;24.53;12.73;;;10.10;99.90;;;;;;6318238;22;20159;-93
2021/12/28 21:20:07;;;;;;;20.20;12.10;;;10.10;99.90;;;;;;6356051;22;20150;-92
2021/12/28 21:22:33;;;;;;;22.87;12.10;;;10.10;99.90;;;;;;6313454;22;20148;-92
2021/12/28 21:25:00;;;;;;;22.03;12.03;;;10.10;99.90;;;;;;6319893;22;20150;-93
2021/12/28 21:27:28;;;;;;;26.80;14.03;;;10.10;99.90;;;;;;6314873;22;20181;-93
2021/12/28 21:30:00;;;;;;;28.03;13.97;;;10.10;99.90;;;;;;6315427;22;20436;-91
2021/12/28 21:32:26;;;;;;;25.97;12.63;;;10.10;99.90;;;;;;6318661;22;20664;-95
2021/12/28 21:34:53;;;;;;;29.33;13.83;;;10.20;99.90;;;;;;6317216;22;20145;-95
2021/12/28 21:37:20;;;;;;;25.23;13.77;;;10.20;99.90;;;;;;6314594;22;20155;-93
2021/12/28 21:39:46;;;;;;;27.50;13.83;;;10.20;99.90;;;;;;6315132;22;20161;-94
2021/12/28 21:42:12;;;;;;;33.13;13.83;;;10.20;99.90;;;;;;6314574;22;20145;-92
2021/12/28 21:44:39;;;;;;;27.93;13.80;;;10.20;99.90;;;;;;6314842;22;20162;-94
2021/12/28 21:47:12;;;;;;;26.40;13.13;;;10.30;99.90;;;;;;6315450;22;20241;-94
2021/12/28 21:49:39;;;;;;;30.03;12.67;;;10.30;99.90;;;;;;6320032;22;20165;-96
2021/12/28 21:52:05;;;;;;;27.87;12.87;;;10.30;99.90;;;;;;6315039;22;20185;-94
2021/12/28 21:54:30;;;;;;;38.60;19.37;;;10.30;99.90;;;;;;6314249;22;20199;-94
2021/12/28 21:56:56;;;;;;;31.33;14.70;;;10.20;99.90;;;;;;6314408;22;20153;-93
2021/12/28 21:59:27;;;;;;;25.53;14.20;;;10.30;99.90;;;;;;6318874;22;20149;-96
2021/12/28 22:01:54;;;;;;;32.57;13.90;;;10.20;99.90;;;;;;6316990;22;20206;-96
2021/12/28 22:04:20;;;;;;;25.73;12.50;;;10.30;99.90;;;;;;6316706;22;20151;-94
2021/12/28 22:06:46;;;;;;;33.93;18.03;;;10.30;99.90;;;;;;6315725;22;20171;-91
2021/12/28 22:09:12;;;;;;;23.70;11.83;;;10.30;99.90;;;;;;6319062;22;20156;-96
2021/12/28 22:11:38;;;;;;;22.50;10.30;;;10.20;99.90;;;;;;6317110;22;20186;-93
2021/12/28 22:14:05;;;;;;;18.10;10.60;;;10.20;99.90;;;;;;6318382;22;20455;-95
2021/12/28 22:16:48;;;;;;;16.40;9.30;;;10.20;99.90;;;;;;6319162;22;20173;-94
2021/12/28 22:19:15;;;;;;;20.80;10.87;;;10.20;99.90;;;;;;6346265;22;20149;-96
2021/12/28 22:21:44;;;;;;;19.27;9.63;;;10.20;99.90;;;;;;6324708;22;20155;-93
2021/12/28 22:24:10;;;;;;;13.13;7.90;;;10.20;99.90;;;;;;6328396;22;20147;-90
2021/12/28 22:26:36;;;;;;;16.70;8.47;;;10.20;99.90;;;;;;6329668;22;20175;-95
2021/12/28 22:29:02;;;;;;;14.57;7.30;;;10.10;99.90;;;;;;6323687;22;20234;-95
2021/12/28 22:31:28;;;;;;;16.47;8.73;;;10.20;99.90;;;;;;6319896;22;20250;-96
2021/12/28 22:33:54;;;;;;;17.43;10.00;;;10.10;99.90;;;;;;6317093;22;20151;-96
2021/12/28 22:36:21;;;;;;;14.90;7.60;;;10.20;99.90;;;;;;6314326;22;20151;-95
2021/12/28 22:38:48;;;;;;;15.77;6.20;;;10.20;99.90;;;;;;6344143;22;20275;-96
2021/12/28 22:41:16;;;;;;;14.00;6.40;;;10.10;99.90;;;;;;6343567;22;20147;-95
2021/12/28 22:43:44;;;;;;;14.70;7.53;;;10.20;99.90;;;;;;6344679;22;20170;-95
2021/12/28 22:46:10;;;;;;;14.67;6.63;;;10.20;99.90;;;;;;6315616;22;20147;-95
2021/12/28 22:48:35;;;;;;;12.03;5.33;;;10.30;99.90;;;;;;6310290;22;20194;-95
2021/12/28 22:51:01;;;;;;;18.97;6.80;;;10.30;99.90;;;;;;6312400;22;20179;-95
2021/12/28 22:53:27;;;;;;;13.07;6.20;;;10.30;99.90;;;;;;6340300;22;20635;-96
2021/12/28 22:55:52;;;;;;;16.20;7.00;;;10.30;99.90;;;;;;6312719;22;20151;-92
2021/12/28 22:58:19;;;;;;;14.10;6.17;;;10.30;99.90;;;;;;6340792;22;20148;-95
2021/12/28 23:00:51;;;;;;;17.43;7.33;;;10.30;99.90;;;;;;6343220;22;20204;-86
2021/12/28 23:03:21;;;;;;;16.17;9.13;;;10.30;99.90;;;;;;6322019;22;20199;-91
2021/12/28 23:06:17;;;;;;;11.77;6.97;;;10.40;99.90;;;;;;6311748;22;20144;-91
2021/12/28 23:08:45;;;;;;;13.47;6.13;;;10.30;99.90;;;;;;6312491;22;20157;-93
2021/12/28 23:11:36;;;;;;;;;;;;;;;;;;;;;
2021/12/28 23:14:02;;;;;;;14.10;6.13;;;10.40;99.90;;;;;;6340231;22;20213;-90
2021/12/28 23:20:44;;;;;;;13.63;6.50;;;10.40;99.90;;;;;;6339545;22;20160;-92
2021/12/28 23:34:16;;;;;;;14.00;5.40;;;10.30;99.90;;;;;;6318051;22;20206;-91
2021/12/28 23:36:43;;;;;;;11.87;4.40;;;10.30;99.90;;;;;;6314386;22;20141;-95
2021/12/28 23:39:17;;;;;;;8.90;4.90;;;10.40;99.90;;;;;;6313240;22;20156;-95
2021/12/28 23:41:49;;;;;;;10.37;5.10;;;10.40;99.90;;;;;;6313744;22;20151;-95
2021/12/28 23:44:15;;;;;;;7.80;4.63;;;10.40;99.90;;;;;;6313219;22;20177;-86
2021/12/28 23:46:40;;;;;;;11.13;5.10;;;10.30;99.90;;;;;;6312453;22;20145;-92
2021/12/28 23:49:08;;;;;;;11.53;5.20;;;10.30;99.90;;;;;;6313195;22;20147;-93
2021/12/28 23:51:34;;;;;;;10.70;3.90;;;10.30;99.90;;;;;;6312960;22;20255;-94
2021/12/28 23:53:59;;;;;;;8.07;4.27;;;10.40;99.90;;;;;;6312962;22;20692;-95
2021/12/28 23:56:26;;;;;;;7.20;4.30;;;10.30;99.90;;;;;;6312507;22;20149;-95
2021/12/28 23:58:56;;;;;;;12.43;4.80;;;10.30;99.90;;;;;;6312119;22;20151;-96
